sensor_id;sensor_type;location;lat;lon;timestamp;temperature;humidity
22769;DHT22;13001;51.968;5.918;2023-08-30T00:01:57;13.90;98.90
22769;DHT22;13001;51.968;5.918;2023-08-30T00:04:24;13.90;99.00
22769;DHT22;13001;51.968;5.918;2023-08-30T00:06:53;13.80;99.10
22769;DHT22;13001;51.968;5.918;2023-08-30T00:09:21;13.70;99.30
22769;DHT22;13001;51.968;5.918;2023-08-30T00:11:49;13.70;99.40
22769;DHT22;13001;51.968;5.918;2023-08-30T00:14:16;13.70;99.60
22769;DHT22;13001;51.968;5.918;2023-08-30T00:16:44;13.70;99.80
22769;DHT22;13001;51.968;5.918;2023-08-30T00:19:11;13.70;99.90
22769;DHT22;13001;51.968;5.918;2023-08-30T00:21:39;13.70;99.90
22769;DHT22;13001;51.968;5.918;2023-08-30T00:24:06;13.80;99.90
22769;DHT22;13001;51.968;5.918;2023-08-30T00:26:34;13.80;99.90
22769;DHT22;13001;51.968;5.918;2023-08-30T00:29:01;13.90;99.90
22769;DHT22;13001;51.968;5.918;2023-08-30T00:31:29;13.90;99.90
22769;DHT22;13001;51.968;5.918;2023-08-30T00:33:56;14.00;99.90
22769;DHT22;13001;51.968;5.918;2023-08-30T00:36:24;14.00;99.90
22769;DHT22;13001;51.968;5.918;2023-08-30T00:38:51;14.00;99.90
22769;DHT22;13001;51.968;5.918;2023-08-30T00:41:19;14.00;99.90
22769;DHT22;13001;51.968;5.918;2023-08-30T00:43:47;14.00;99.90
22769;DHT22;13001;51.968;5.918;2023-08-30T00:46:14;14.00;99.90
22769;DHT22;13001;51.968;5.918;2023-08-30T00:48:43;14.00;99.90
22769;DHT22;13001;51.968;5.918;2023-08-30T00:51:11;13.90;99.90
22769;DHT22;13001;51.968;5.918;2023-08-30T00:53:39;13.90;99.90
22769;DHT22;13001;51.968;5.918;2023-08-30T00:56:07;13.90;99.90
22769;DHT22;13001;51.968;5.918;2023-08-30T00:58:34;13.80;99.90
22769;DHT22;13001;51.968;5.918;2023-08-30T01:01:03;13.80;99.90
22769;DHT22;13001;51.968;5.918;2023-08-30T01:03:33;13.70;99.90
22769;DHT22;13001;51.968;5.918;2023-08-30T01:06:01;13.70;99.90
22769;DHT22;13001;51.968;5.918;2023-08-30T01:08:28;13.60;99.90
22769;DHT22;13001;51.968;5.918;2023-08-30T01:11:26;13.60;99.90
22769;DHT22;13001;51.968;5.918;2023-08-30T01:14:00;13.50;99.90
22769;DHT22;13001;51.968;5.918;2023-08-30T01:16:23;13.50;99.90
22769;DHT22;13001;51.968;5.918;2023-08-30T01:18:55;13.40;99.90
22769;DHT22;13001;51.968;5.918;2023-08-30T01:21:31;13.40;99.90
22769;DHT22;13001;51.968;5.918;2023-08-30T01:23:59;13.30;99.90
22769;DHT22;13001;51.968;5.918;2023-08-30T01:29:19;13.30;99.90
22769;DHT22;13001;51.968;5.918;2023-08-30T01:31:48;13.20;99.90
22769;DHT22;13001;51.968;5.918;2023-08-30T01:34:17;13.20;99.90
22769;DHT22;13001;51.968;5.918;2023-08-30T01:36:45;13.20;99.90
22769;DHT22;13001;51.968;5.918;2023-08-30T01:39:14;13.20;99.90
22769;DHT22;13001;51.968;5.918;2023-08-30T01:41:43;13.20;99.90
22769;DHT22;13001;51.968;5.918;2023-08-30T01:44:12;13.20;99.90
22769;DHT22;13001;51.968;5.918;2023-08-30T01:46:41;13.20;99.90
22769;DHT22;13001;51.968;5.918;2023-08-30T01:49:10;13.10;99.90
22769;DHT22;13001;51.968;5.918;2023-08-30T01:51:38;13.20;99.90
22769;DHT22;13001;51.968;5.918;2023-08-30T01:54:07;13.10;99.90
22769;DHT22;13001;51.968;5.918;2023-08-30T01:56:36;13.10;99.90
22769;DHT22;13001;51.968;5.918;2023-08-30T01:59:04;13.10;99.90
22769;DHT22;13001;51.968;5.918;2023-08-30T02:01:31;13.00;99.90
22769;DHT22;13001;51.968;5.918;2023-08-30T02:03:59;13.00;99.90
22769;DHT22;13001;51.968;5.918;2023-08-30T02:09:35;13.10;99.90
22769;DHT22;13001;51.968;5.918;2023-08-30T02:12:02;13.20;99.90
22769;DHT22;13001;51.968;5.918;2023-08-30T02:14:31;13.30;99.90
22769;DHT22;13001;51.968;5.918;2023-08-30T02:16:59;13.40;99.90
22769;DHT22;13001;51.968;5.918;2023-08-30T02:19:27;13.50;99.90
22769;DHT22;13001;51.968;5.918;2023-08-30T02:21:55;13.60;99.90
22769;DHT22;13001;51.968;5.918;2023-08-30T02:24:22;13.60;99.90
22769;DHT22;13001;51.968;5.918;2023-08-30T02:26:50;13.70;99.90
22769;DHT22;13001;51.968;5.918;2023-08-30T02:29:18;13.80;99.90
22769;DHT22;13001;51.968;5.918;2023-08-30T02:31:47;13.90;99.90
22769;DHT22;13001;51.968;5.918;2023-08-30T02:34:16;13.90;99.90
22769;DHT22;13001;51.968;5.918;2023-08-30T02:36:43;14.00;99.90
22769;DHT22;13001;51.968;5.918;2023-08-30T02:39:13;14.10;99.90
22769;DHT22;13001;51.968;5.918;2023-08-30T02:41:41;14.10;99.90
22769;DHT22;13001;51.968;5.918;2023-08-30T02:44:13;14.20;99.90
22769;DHT22;13001;51.968;5.918;2023-08-30T02:46:41;14.20;99.90
22769;DHT22;13001;51.968;5.918;2023-08-30T02:49:08;14.30;99.90
22769;DHT22;13001;51.968;5.918;2023-08-30T02:51:37;14.30;99.90
22769;DHT22;13001;51.968;5.918;2023-08-30T02:54:05;14.30;99.90
22769;DHT22;13001;51.968;5.918;2023-08-30T02:56:33;14.30;99.90
22769;DHT22;13001;51.968;5.918;2023-08-30T02:59:00;14.40;99.90
22769;DHT22;13001;51.968;5.918;2023-08-30T03:01:28;14.40;99.90
22769;DHT22;13001;51.968;5.918;2023-08-30T03:03:55;14.40;99.90
22769;DHT22;13001;51.968;5.918;2023-08-30T03:06:23;14.40;99.90
22769;DHT22;13001;51.968;5.918;2023-08-30T03:08:50;14.40;99.90
22769;DHT22;13001;51.968;5.918;2023-08-30T03:11:18;14.40;99.90
22769;DHT22;13001;51.968;5.918;2023-08-30T03:13:46;14.40;99.90
22769;DHT22;13001;51.968;5.918;2023-08-30T03:16:15;14.40;99.90
22769;DHT22;13001;51.968;5.918;2023-08-30T03:18:44;14.40;99.90
22769;DHT22;13001;51.968;5.918;2023-08-30T03:21:11;14.40;99.90
22769;DHT22;13001;51.968;5.918;2023-08-30T03:23:40;14.40;99.90
22769;DHT22;13001;51.968;5.918;2023-08-30T03:26:12;14.40;99.90
22769;DHT22;13001;51.968;5.918;2023-08-30T03:28:41;14.40;99.90
22769;DHT22;13001;51.968;5.918;2023-08-30T03:31:16;14.40;99.90
22769;DHT22;13001;51.968;5.918;2023-08-30T03:33:45;14.30;99.90
22769;DHT22;13001;51.968;5.918;2023-08-30T03:36:15;14.30;99.90
22769;DHT22;13001;51.968;5.918;2023-08-30T03:38:44;14.20;99.90
22769;DHT22;13001;51.968;5.918;2023-08-30T03:41:12;14.20;99.90
22769;DHT22;13001;51.968;5.918;2023-08-30T03:43:39;14.20;99.90
22769;DHT22;13001;51.968;5.918;2023-08-30T03:46:07;14.20;99.90
22769;DHT22;13001;51.968;5.918;2023-08-30T03:48:35;14.20;99.90
22769;DHT22;13001;51.968;5.918;2023-08-30T03:51:03;14.20;99.90
22769;DHT22;13001;51.968;5.918;2023-08-30T03:53:30;14.10;99.90
22769;DHT22;13001;51.968;5.918;2023-08-30T03:55:58;14.10;99.90
22769;DHT22;13001;51.968;5.918;2023-08-30T03:58:26;14.00;99.90
22769;DHT22;13001;51.968;5.918;2023-08-30T04:00:53;13.90;99.90
22769;DHT22;13001;51.968;5.918;2023-08-30T04:03:21;13.80;99.90
22769;DHT22;13001;51.968;5.918;2023-08-30T04:05:56;13.70;99.90
22769;DHT22;13001;51.968;5.918;2023-08-30T04:08:23;13.70;99.90
22769;DHT22;13001;51.968;5.918;2023-08-30T04:10:53;13.60;99.90
22769;DHT22;13001;51.968;5.918;2023-08-30T04:13:20;13.50;99.90
22769;DHT22;13001;51.968;5.918;2023-08-30T04:15:48;13.50;99.90
22769;DHT22;13001;51.968;5.918;2023-08-30T04:18:16;13.40;99.90
22769;DHT22;13001;51.968;5.918;2023-08-30T04:20:46;13.40;99.90
22769;DHT22;13001;51.968;5.918;2023-08-30T04:23:14;13.40;99.90
22769;DHT22;13001;51.968;5.918;2023-08-30T04:25:41;13.40;99.90
22769;DHT22;13001;51.968;5.918;2023-08-30T04:28:09;13.40;99.90
22769;DHT22;13001;51.968;5.918;2023-08-30T04:30:37;13.40;99.90
22769;DHT22;13001;51.968;5.918;2023-08-30T04:33:05;13.30;99.90
22769;DHT22;13001;51.968;5.918;2023-08-30T04:35:33;13.30;99.90
22769;DHT22;13001;51.968;5.918;2023-08-30T04:38:01;13.30;99.90
22769;DHT22;13001;51.968;5.918;2023-08-30T04:40:29;13.30;99.90
22769;DHT22;13001;51.968;5.918;2023-08-30T04:42:59;13.20;99.90
22769;DHT22;13001;51.968;5.918;2023-08-30T04:45:26;13.20;99.90
22769;DHT22;13001;51.968;5.918;2023-08-30T04:47:54;13.10;99.90
22769;DHT22;13001;51.968;5.918;2023-08-30T04:50:22;13.10;99.90
22769;DHT22;13001;51.968;5.918;2023-08-30T04:52:49;13.10;99.90
22769;DHT22;13001;51.968;5.918;2023-08-30T04:55:17;13.10;99.90
22769;DHT22;13001;51.968;5.918;2023-08-30T04:57:45;13.10;99.90
22769;DHT22;13001;51.968;5.918;2023-08-30T05:00:14;13.10;99.90
22769;DHT22;13001;51.968;5.918;2023-08-30T05:02:42;13.10;99.90
22769;DHT22;13001;51.968;5.918;2023-08-30T05:05:12;13.10;99.90
22769;DHT22;13001;51.968;5.918;2023-08-30T05:07:41;13.10;99.90
22769;DHT22;13001;51.968;5.918;2023-08-30T05:10:09;13.20;99.90
22769;DHT22;13001;51.968;5.918;2023-08-30T05:12:36;13.30;99.90
22769;DHT22;13001;51.968;5.918;2023-08-30T05:15:04;13.40;99.90
22769;DHT22;13001;51.968;5.918;2023-08-30T05:17:34;13.50;99.90
22769;DHT22;13001;51.968;5.918;2023-08-30T05:20:01;13.60;99.90
22769;DHT22;13001;51.968;5.918;2023-08-30T05:22:29;13.70;99.90
22769;DHT22;13001;51.968;5.918;2023-08-30T05:24:57;14.00;99.90
22769;DHT22;13001;51.968;5.918;2023-08-30T05:27:24;14.30;99.90
22769;DHT22;13001;51.968;5.918;2023-08-30T05:29:52;14.80;99.90
22769;DHT22;13001;51.968;5.918;2023-08-30T05:32:19;15.30;99.90
22769;DHT22;13001;51.968;5.918;2023-08-30T05:34:47;15.90;99.90
22769;DHT22;13001;51.968;5.918;2023-08-30T05:37:14;16.50;99.30
22769;DHT22;13001;51.968;5.918;2023-08-30T05:39:42;17.20;98.00
22769;DHT22;13001;51.968;5.918;2023-08-30T05:42:09;18.00;96.70
22769;DHT22;13001;51.968;5.918;2023-08-30T05:44:37;18.70;95.20
22769;DHT22;13001;51.968;5.918;2023-08-30T05:47:05;19.30;93.90
22769;DHT22;13001;51.968;5.918;2023-08-30T05:49:32;19.90;92.60
22769;DHT22;13001;51.968;5.918;2023-08-30T05:52:00;20.60;91.30
22769;DHT22;13001;51.968;5.918;2023-08-30T05:54:27;21.00;90.10
22769;DHT22;13001;51.968;5.918;2023-08-30T05:56:56;21.30;88.20
22769;DHT22;13001;51.968;5.918;2023-08-30T05:59:24;21.50;86.60
22769;DHT22;13001;51.968;5.918;2023-08-30T06:01:51;21.90;85.10
22769;DHT22;13001;51.968;5.918;2023-08-30T06:04:19;22.30;83.30
22769;DHT22;13001;51.968;5.918;2023-08-30T06:06:46;22.30;81.20
22769;DHT22;13001;51.968;5.918;2023-08-30T06:09:14;21.80;80.90
22769;DHT22;13001;51.968;5.918;2023-08-30T06:11:41;21.20;82.10
22769;DHT22;13001;51.968;5.918;2023-08-30T06:14:09;20.70;83.20
22769;DHT22;13001;51.968;5.918;2023-08-30T06:16:36;20.40;84.40
22769;DHT22;13001;51.968;5.918;2023-08-30T06:19:04;20.30;86.00
22769;DHT22;13001;51.968;5.918;2023-08-30T06:21:31;20.60;85.50
22769;DHT22;13001;51.968;5.918;2023-08-30T06:24:00;21.00;84.30
22769;DHT22;13001;51.968;5.918;2023-08-30T06:26:28;21.20;82.80
22769;DHT22;13001;51.968;5.918;2023-08-30T06:28:55;21.20;81.90
22769;DHT22;13001;51.968;5.918;2023-08-30T06:31:23;20.80;81.60
22769;DHT22;13001;51.968;5.918;2023-08-30T06:33:50;20.30;82.30
22769;DHT22;13001;51.968;5.918;2023-08-30T06:36:18;19.60;83.60
22769;DHT22;13001;51.968;5.918;2023-08-30T06:38:47;19.00;85.30
22769;DHT22;13001;51.968;5.918;2023-08-30T06:41:15;18.40;86.80
22769;DHT22;13001;51.968;5.918;2023-08-30T06:43:42;17.90;88.50
22769;DHT22;13001;51.968;5.918;2023-08-30T06:46:10;17.60;89.90
22769;DHT22;13001;51.968;5.918;2023-08-30T06:48:37;17.30;90.40
22769;DHT22;13001;51.968;5.918;2023-08-30T06:51:05;17.10;90.90
22769;DHT22;13001;51.968;5.918;2023-08-30T06:53:32;17.00;91.30
22769;DHT22;13001;51.968;5.918;2023-08-30T06:56:00;17.00;91.60
22769;DHT22;13001;51.968;5.918;2023-08-30T06:58:28;16.90;91.70
22769;DHT22;13001;51.968;5.918;2023-08-30T07:00:57;16.80;91.90
22769;DHT22;13001;51.968;5.918;2023-08-30T07:03:26;16.80;92.10
22769;DHT22;13001;51.968;5.918;2023-08-30T07:05:53;16.70;92.30
22769;DHT22;13001;51.968;5.918;2023-08-30T07:08:21;16.60;92.50
22769;DHT22;13001;51.968;5.918;2023-08-30T07:10:48;16.60;92.70
22769;DHT22;13001;51.968;5.918;2023-08-30T07:13:16;16.50;92.90
22769;DHT22;13001;51.968;5.918;2023-08-30T07:15:43;16.50;93.10
22769;DHT22;13001;51.968;5.918;2023-08-30T07:18:11;16.50;93.30
22769;DHT22;13001;51.968;5.918;2023-08-30T07:20:39;16.50;93.40
22769;DHT22;13001;51.968;5.918;2023-08-30T07:23:07;16.50;93.60
22769;DHT22;13001;51.968;5.918;2023-08-30T07:25:34;16.60;93.70
22769;DHT22;13001;51.968;5.918;2023-08-30T07:28:04;16.60;93.70
22769;DHT22;13001;51.968;5.918;2023-08-30T07:30:31;16.60;94.00
22769;DHT22;13001;51.968;5.918;2023-08-30T07:33:01;16.60;93.70
22769;DHT22;13001;51.968;5.918;2023-08-30T07:35:30;16.60;93.90
22769;DHT22;13001;51.968;5.918;2023-08-30T07:37:57;16.50;94.00
22769;DHT22;13001;51.968;5.918;2023-08-30T07:40:25;16.50;94.20
22769;DHT22;13001;51.968;5.918;2023-08-30T07:42:54;16.40;94.30
22769;DHT22;13001;51.968;5.918;2023-08-30T07:45:22;16.40;94.50
22769;DHT22;13001;51.968;5.918;2023-08-30T07:47:50;16.30;94.60
22769;DHT22;13001;51.968;5.918;2023-08-30T07:50:18;16.30;94.80
22769;DHT22;13001;51.968;5.918;2023-08-30T07:52:45;16.20;94.90
22769;DHT22;13001;51.968;5.918;2023-08-30T07:55:13;16.10;95.00
22769;DHT22;13001;51.968;5.918;2023-08-30T07:57:41;16.00;95.30
22769;DHT22;13001;51.968;5.918;2023-08-30T08:00:09;15.90;95.50
22769;DHT22;13001;51.968;5.918;2023-08-30T08:02:36;15.90;95.70
22769;DHT22;13001;51.968;5.918;2023-08-30T08:05:04;15.80;95.90
22769;DHT22;13001;51.968;5.918;2023-08-30T08:07:32;15.80;96.10
22769;DHT22;13001;51.968;5.918;2023-08-30T08:09:59;15.70;96.30
22769;DHT22;13001;51.968;5.918;2023-08-30T08:12:27;15.60;96.50
22769;DHT22;13001;51.968;5.918;2023-08-30T08:14:54;15.50;96.70
22769;DHT22;13001;51.968;5.918;2023-08-30T08:17:22;15.40;97.00
22769;DHT22;13001;51.968;5.918;2023-08-30T08:19:49;15.40;97.20
22769;DHT22;13001;51.968;5.918;2023-08-30T08:22:17;15.30;97.50
22769;DHT22;13001;51.968;5.918;2023-08-30T08:24:46;15.20;97.80
22769;DHT22;13001;51.968;5.918;2023-08-30T08:27:15;15.20;98.00
22769;DHT22;13001;51.968;5.918;2023-08-30T08:29:43;15.10;98.20
22769;DHT22;13001;51.968;5.918;2023-08-30T08:32:10;15.10;98.40
22769;DHT22;13001;51.968;5.918;2023-08-30T08:34:38;15.10;98.70
22769;DHT22;13001;51.968;5.918;2023-08-30T08:37:07;15.10;98.90
22769;DHT22;13001;51.968;5.918;2023-08-30T08:39:34;15.20;99.20
22769;DHT22;13001;51.968;5.918;2023-08-30T08:42:04;15.30;99.50
22769;DHT22;13001;51.968;5.918;2023-08-30T08:44:32;15.40;99.40
22769;DHT22;13001;51.968;5.918;2023-08-30T08:47:01;15.40;99.40
22769;DHT22;13001;51.968;5.918;2023-08-30T08:49:29;15.40;99.50
22769;DHT22;13001;51.968;5.918;2023-08-30T08:51:57;15.40;99.70
22769;DHT22;13001;51.968;5.918;2023-08-30T08:54:26;15.40;99.90
22769;DHT22;13001;51.968;5.918;2023-08-30T08:56:54;15.50;99.90
22769;DHT22;13001;51.968;5.918;2023-08-30T08:59:22;15.60;99.90
22769;DHT22;13001;51.968;5.918;2023-08-30T09:01:51;15.70;99.90
22769;DHT22;13001;51.968;5.918;2023-08-30T09:04:20;15.70;99.90
22769;DHT22;13001;51.968;5.918;2023-08-30T09:06:47;15.70;99.90
22769;DHT22;13001;51.968;5.918;2023-08-30T09:09:15;15.70;99.90
22769;DHT22;13001;51.968;5.918;2023-08-30T09:11:43;15.60;99.90
22769;DHT22;13001;51.968;5.918;2023-08-30T09:14:10;15.60;99.90
22769;DHT22;13001;51.968;5.918;2023-08-30T09:16:38;15.50;99.90
22769;DHT22;13001;51.968;5.918;2023-08-30T09:19:07;15.50;99.90
22769;DHT22;13001;51.968;5.918;2023-08-30T09:21:36;15.50;99.90
22769;DHT22;13001;51.968;5.918;2023-08-30T09:24:05;15.50;99.90
22769;DHT22;13001;51.968;5.918;2023-08-30T09:26:34;15.50;99.90
22769;DHT22;13001;51.968;5.918;2023-08-30T09:29:04;15.50;99.90
22769;DHT22;13001;51.968;5.918;2023-08-30T09:31:37;15.50;99.90
22769;DHT22;13001;51.968;5.918;2023-08-30T09:34:07;15.60;99.90
22769;DHT22;13001;51.968;5.918;2023-08-30T09:36:35;15.60;99.90
22769;DHT22;13001;51.968;5.918;2023-08-30T09:39:08;15.60;99.90
22769;DHT22;13001;51.968;5.918;2023-08-30T09:41:33;15.60;99.90
22769;DHT22;13001;51.968;5.918;2023-08-30T09:44:11;15.60;99.90
22769;DHT22;13001;51.968;5.918;2023-08-30T09:46:43;15.60;99.90
22769;DHT22;13001;51.968;5.918;2023-08-30T09:49:12;15.60;99.90
22769;DHT22;13001;51.968;5.918;2023-08-30T09:51:41;15.70;99.90
22769;DHT22;13001;51.968;5.918;2023-08-30T09:54:17;15.70;99.90
22769;DHT22;13001;51.968;5.918;2023-08-30T09:56:47;15.80;99.90
22769;DHT22;13001;51.968;5.918;2023-08-30T09:59:16;16.00;99.90
22769;DHT22;13001;51.968;5.918;2023-08-30T10:01:46;16.10;99.90
22769;DHT22;13001;51.968;5.918;2023-08-30T10:04:16;16.30;99.90
22769;DHT22;13001;51.968;5.918;2023-08-30T10:06:45;16.40;99.90
22769;DHT22;13001;51.968;5.918;2023-08-30T10:09:15;16.50;99.90
22769;DHT22;13001;51.968;5.918;2023-08-30T10:11:45;16.60;99.90
22769;DHT22;13001;51.968;5.918;2023-08-30T10:14:14;16.70;99.90
22769;DHT22;13001;51.968;5.918;2023-08-30T10:16:43;16.80;99.90
22769;DHT22;13001;51.968;5.918;2023-08-30T10:19:23;16.90;99.90
22769;DHT22;13001;51.968;5.918;2023-08-30T10:21:48;16.90;99.90
22769;DHT22;13001;51.968;5.918;2023-08-30T10:24:19;17.00;99.90
22769;DHT22;13001;51.968;5.918;2023-08-30T10:26:49;17.10;99.90
22769;DHT22;13001;51.968;5.918;2023-08-30T10:29:18;17.20;99.90
22769;DHT22;13001;51.968;5.918;2023-08-30T10:31:46;17.30;99.90
22769;DHT22;13001;51.968;5.918;2023-08-30T10:34:17;17.40;99.90
22769;DHT22;13001;51.968;5.918;2023-08-30T10:36:55;17.70;99.90
22769;DHT22;13001;51.968;5.918;2023-08-30T10:39:15;18.00;99.90
22769;DHT22;13001;51.968;5.918;2023-08-30T10:41:56;18.10;99.90
22769;DHT22;13001;51.968;5.918;2023-08-30T10:44:24;18.30;99.90
22769;DHT22;13001;51.968;5.918;2023-08-30T10:46:55;18.40;99.90
22769;DHT22;13001;51.968;5.918;2023-08-30T10:49:22;18.50;99.90
22769;DHT22;13001;51.968;5.918;2023-08-30T10:51:57;18.60;99.90
22769;DHT22;13001;51.968;5.918;2023-08-30T10:54:36;18.90;99.90
22769;DHT22;13001;51.968;5.918;2023-08-30T10:56:59;19.50;99.90
22769;DHT22;13001;51.968;5.918;2023-08-30T10:59:28;20.10;99.90
22769;DHT22;13001;51.968;5.918;2023-08-30T11:02:00;20.50;99.90
22769;DHT22;13001;51.968;5.918;2023-08-30T11:04:28;20.80;99.90
22769;DHT22;13001;51.968;5.918;2023-08-30T11:06:56;21.20;99.90
22769;DHT22;13001;51.968;5.918;2023-08-30T11:09:24;21.50;99.70
22769;DHT22;13001;51.968;5.918;2023-08-30T11:11:53;21.60;98.50
22769;DHT22;13001;51.968;5.918;2023-08-30T11:14:20;21.70;98.30
22769;DHT22;13001;51.968;5.918;2023-08-30T11:16:48;21.80;98.50
22769;DHT22;13001;51.968;5.918;2023-08-30T11:19:15;22.00;98.20
22769;DHT22;13001;51.968;5.918;2023-08-30T11:21:44;22.30;97.70
22769;DHT22;13001;51.968;5.918;2023-08-30T11:24:12;22.30;97.20
22769;DHT22;13001;51.968;5.918;2023-08-30T11:26:40;22.20;96.70
22769;DHT22;13001;51.968;5.918;2023-08-30T11:29:08;21.90;96.70
22769;DHT22;13001;51.968;5.918;2023-08-30T11:31:36;21.40;96.90
22769;DHT22;13001;51.968;5.918;2023-08-30T11:34:03;21.00;97.40
22769;DHT22;13001;51.968;5.918;2023-08-30T11:36:32;20.60;98.00
22769;DHT22;13001;51.968;5.918;2023-08-30T11:39:01;20.40;98.60
22769;DHT22;13001;51.968;5.918;2023-08-30T11:41:31;20.40;99.00
22769;DHT22;13001;51.968;5.918;2023-08-30T11:43:59;20.50;99.10
22769;DHT22;13001;51.968;5.918;2023-08-30T11:46:28;20.60;98.80
22769;DHT22;13001;51.968;5.918;2023-08-30T11:48:58;20.80;98.80
22769;DHT22;13001;51.968;5.918;2023-08-30T11:51:26;21.00;99.00
22769;DHT22;13001;51.968;5.918;2023-08-30T11:53:55;21.50;99.00
22769;DHT22;13001;51.968;5.918;2023-08-30T11:56:24;22.10;98.00
22769;DHT22;13001;51.968;5.918;2023-08-30T11:58:52;22.40;97.30
22769;DHT22;13001;51.968;5.918;2023-08-30T12:01:19;22.90;96.80
22769;DHT22;13001;51.968;5.918;2023-08-30T12:03:47;23.40;96.30
22769;DHT22;13001;51.968;5.918;2023-08-30T12:06:16;23.80;95.40
22769;DHT22;13001;51.968;5.918;2023-08-30T12:08:44;24.00;94.80
22769;DHT22;13001;51.968;5.918;2023-08-30T12:11:19;24.20;94.10
22769;DHT22;13001;51.968;5.918;2023-08-30T12:13:48;24.10;93.40
22769;DHT22;13001;51.968;5.918;2023-08-30T12:16:17;23.80;93.00
22769;DHT22;13001;51.968;5.918;2023-08-30T12:18:46;23.50;92.90
22769;DHT22;13001;51.968;5.918;2023-08-30T12:21:16;23.10;92.80
22769;DHT22;13001;51.968;5.918;2023-08-30T12:23:43;22.80;92.70
22769;DHT22;13001;51.968;5.918;2023-08-30T12:26:11;22.50;92.70
22769;DHT22;13001;51.968;5.918;2023-08-30T12:28:41;22.20;92.50
22769;DHT22;13001;51.968;5.918;2023-08-30T12:31:11;21.90;92.50
22769;DHT22;13001;51.968;5.918;2023-08-30T12:33:38;21.50;92.70
22769;DHT22;13001;51.968;5.918;2023-08-30T12:36:07;21.30;93.00
22769;DHT22;13001;51.968;5.918;2023-08-30T12:38:35;21.20;93.20
22769;DHT22;13001;51.968;5.918;2023-08-30T12:41:02;21.20;93.50
22769;DHT22;13001;51.968;5.918;2023-08-30T12:43:30;21.30;93.50
22769;DHT22;13001;51.968;5.918;2023-08-30T12:45:57;21.60;93.30
22769;DHT22;13001;51.968;5.918;2023-08-30T12:48:25;21.90;93.10
22769;DHT22;13001;51.968;5.918;2023-08-30T12:50:53;22.10;92.90
22769;DHT22;13001;51.968;5.918;2023-08-30T12:53:20;22.30;92.50
22769;DHT22;13001;51.968;5.918;2023-08-30T12:55:48;22.60;92.40
22769;DHT22;13001;51.968;5.918;2023-08-30T12:58:15;22.80;91.70
22769;DHT22;13001;51.968;5.918;2023-08-30T13:00:43;22.80;91.40
22769;DHT22;13001;51.968;5.918;2023-08-30T13:03:10;22.50;91.00
22769;DHT22;13001;51.968;5.918;2023-08-30T13:05:38;22.30;91.20
22769;DHT22;13001;51.968;5.918;2023-08-30T13:08:07;22.10;91.40
22769;DHT22;13001;51.968;5.918;2023-08-30T13:10:35;21.90;91.80
22769;DHT22;13001;51.968;5.918;2023-08-30T13:13:02;22.20;92.00
22769;DHT22;13001;51.968;5.918;2023-08-30T13:15:30;22.30;91.40
22769;DHT22;13001;51.968;5.918;2023-08-30T13:17:57;22.50;91.30
22769;DHT22;13001;51.968;5.918;2023-08-30T13:20:25;22.60;91.00
22769;DHT22;13001;51.968;5.918;2023-08-30T13:22:53;22.70;90.80
22769;DHT22;13001;51.968;5.918;2023-08-30T13:25:21;22.70;90.70
22769;DHT22;13001;51.968;5.918;2023-08-30T13:27:48;22.70;90.60
22769;DHT22;13001;51.968;5.918;2023-08-30T13:30:17;22.60;90.60
22769;DHT22;13001;51.968;5.918;2023-08-30T13:32:45;22.50;90.30
22769;DHT22;13001;51.968;5.918;2023-08-30T13:35:12;22.40;90.40
22769;DHT22;13001;51.968;5.918;2023-08-30T13:37:41;22.30;90.40
22769;DHT22;13001;51.968;5.918;2023-08-30T13:40:09;22.20;90.30
22769;DHT22;13001;51.968;5.918;2023-08-30T13:42:38;22.10;90.30
22769;DHT22;13001;51.968;5.918;2023-08-30T13:45:06;22.20;90.50
22769;DHT22;13001;51.968;5.918;2023-08-30T13:47:36;22.30;90.40
22769;DHT22;13001;51.968;5.918;2023-08-30T13:50:06;22.50;90.20
22769;DHT22;13001;51.968;5.918;2023-08-30T13:52:35;22.60;89.80
22769;DHT22;13001;51.968;5.918;2023-08-30T13:55:03;22.70;89.00
22769;DHT22;13001;51.968;5.918;2023-08-30T13:57:31;22.80;88.50
22769;DHT22;13001;51.968;5.918;2023-08-30T13:59:59;22.80;87.90
22769;DHT22;13001;51.968;5.918;2023-08-30T14:02:28;22.80;87.60
22769;DHT22;13001;51.968;5.918;2023-08-30T14:04:55;22.70;87.20
22769;DHT22;13001;51.968;5.918;2023-08-30T14:07:23;22.70;86.80
22769;DHT22;13001;51.968;5.918;2023-08-30T14:09:50;22.50;86.40
22769;DHT22;13001;51.968;5.918;2023-08-30T14:12:19;22.30;86.40
22769;DHT22;13001;51.968;5.918;2023-08-30T14:14:49;22.30;86.10
22769;DHT22;13001;51.968;5.918;2023-08-30T14:17:18;22.30;85.30
22769;DHT22;13001;51.968;5.918;2023-08-30T14:19:45;22.40;84.80
22769;DHT22;13001;51.968;5.918;2023-08-30T14:22:13;22.10;84.30
22769;DHT22;13001;51.968;5.918;2023-08-30T14:24:40;21.90;84.30
22769;DHT22;13001;51.968;5.918;2023-08-30T14:27:08;21.60;84.80
22769;DHT22;13001;51.968;5.918;2023-08-30T14:29:35;21.60;85.20
22769;DHT22;13001;51.968;5.918;2023-08-30T14:32:03;21.80;85.00
22769;DHT22;13001;51.968;5.918;2023-08-30T14:34:30;22.00;84.40
22769;DHT22;13001;51.968;5.918;2023-08-30T14:36:58;22.20;83.80
22769;DHT22;13001;51.968;5.918;2023-08-30T14:39:27;22.30;83.30
22769;DHT22;13001;51.968;5.918;2023-08-30T14:41:54;22.40;82.80
22769;DHT22;13001;51.968;5.918;2023-08-30T14:44:22;22.40;82.40
22769;DHT22;13001;51.968;5.918;2023-08-30T14:46:51;22.50;81.80
22769;DHT22;13001;51.968;5.918;2023-08-30T14:49:19;22.60;81.50
22769;DHT22;13001;51.968;5.918;2023-08-30T14:51:46;22.70;81.30
22769;DHT22;13001;51.968;5.918;2023-08-30T14:54:14;22.70;80.70
22769;DHT22;13001;51.968;5.918;2023-08-30T14:56:41;22.70;80.00
22769;DHT22;13001;51.968;5.918;2023-08-30T14:59:09;22.40;79.70
22769;DHT22;13001;51.968;5.918;2023-08-30T15:01:38;22.20;79.80
22769;DHT22;13001;51.968;5.918;2023-08-30T15:04:06;21.90;80.00
22769;DHT22;13001;51.968;5.918;2023-08-30T15:06:33;21.70;80.50
22769;DHT22;13001;51.968;5.918;2023-08-30T15:09:01;21.60;81.00
22769;DHT22;13001;51.968;5.918;2023-08-30T15:11:29;21.60;80.90
22769;DHT22;13001;51.968;5.918;2023-08-30T15:13:57;21.60;80.70
22769;DHT22;13001;51.968;5.918;2023-08-30T15:16:24;21.50;80.60
22769;DHT22;13001;51.968;5.918;2023-08-30T15:18:52;21.50;80.60
22769;DHT22;13001;51.968;5.918;2023-08-30T15:21:19;21.50;80.80
22769;DHT22;13001;51.968;5.918;2023-08-30T15:23:47;21.50;81.00
22769;DHT22;13001;51.968;5.918;2023-08-30T15:26:15;21.30;81.00
22769;DHT22;13001;51.968;5.918;2023-08-30T15:28:44;21.10;81.40
22769;DHT22;13001;51.968;5.918;2023-08-30T15:31:13;20.90;81.60
22769;DHT22;13001;51.968;5.918;2023-08-30T15:33:42;20.80;81.90
22769;DHT22;13001;51.968;5.918;2023-08-30T15:36:09;20.60;82.10
22769;DHT22;13001;51.968;5.918;2023-08-30T15:38:37;20.40;82.50
22769;DHT22;13001;51.968;5.918;2023-08-30T15:41:10;20.30;82.90
22769;DHT22;13001;51.968;5.918;2023-08-30T15:43:39;20.20;83.70